createdAt,value
2022-10-23T00:02:00.438Z,95177.53
2022-10-23T00:04:26.809Z,95181.72
2022-10-23T00:06:53.165Z,95174.28
2022-10-23T00:09:19.525Z,95168.94
2022-10-23T00:11:45.876Z,95164.84
2022-10-23T00:14:12.252Z,95161.34
2022-10-23T00:16:38.591Z,95160.59
2022-10-23T00:19:05.020Z,95164.34
2022-10-23T00:21:31.363Z,95167.69
2022-10-23T00:23:57.853Z,95164.34
2022-10-23T00:26:24.217Z,95156.16
2022-10-23T00:28:50.580Z,95161.00
2022-10-23T00:31:16.933Z,95167.19
2022-10-23T00:33:43.309Z,95165.03
2022-10-23T00:36:09.665Z,95161.25
2022-10-23T00:38:36.016Z,95165.69
2022-10-23T00:41:02.361Z,95163.44
2022-10-23T00:43:28.719Z,95176.38
2022-10-23T00:45:55.084Z,95165.69
2022-10-23T00:48:21.457Z,95162.00
2022-10-23T00:50:47.801Z,95162.34
2022-10-23T00:53:14.199Z,95162.00
2022-10-23T00:55:40.545Z,95160.50
2022-10-23T00:58:06.908Z,95160.19
2022-10-23T01:00:33.290Z,95162.19
2022-10-23T01:02:59.649Z,95158.75
2022-10-23T01:05:26.007Z,95173.63
2022-10-23T01:07:52.365Z,95163.44
2022-10-23T01:10:18.736Z,95158.59
2022-10-23T01:12:45.081Z,95157.56
2022-10-23T01:15:11.429Z,95158.66
2022-10-23T01:17:39.693Z,95160.66
2022-10-23T01:20:08.762Z,95159.06
2022-10-23T01:22:35.135Z,95162.34
2022-10-23T01:25:01.494Z,95165.50
2022-10-23T01:27:27.853Z,95161.25
2022-10-23T01:29:54.203Z,95158.25
2022-10-23T01:32:20.565Z,95153.25
2022-10-23T01:34:46.933Z,95148.75
2022-10-23T01:37:13.312Z,95143.81
2022-10-23T01:39:39.674Z,95141.56
2022-10-23T01:42:06.055Z,95138.47
2022-10-23T01:44:32.398Z,95134.78
2022-10-23T01:46:58.756Z,95139.03
2022-10-23T01:49:25.091Z,95139.94
2022-10-23T01:51:51.449Z,95128.25
2022-10-23T01:54:17.809Z,95133.75
2022-10-23T01:56:44.178Z,95122.41
2022-10-23T01:59:10.541Z,95117.75
2022-10-23T02:01:37.013Z,95119.25
2022-10-23T02:04:03.470Z,95115.56
2022-10-23T02:06:29.824Z,95121.25
2022-10-23T02:08:56.193Z,95116.91
2022-10-23T02:11:22.557Z,95116.00
2022-10-23T02:13:48.911Z,95108.16
2022-10-23T02:16:15.267Z,95101.56
2022-10-23T02:18:41.640Z,95102.16
2022-10-23T02:21:07.989Z,95112.50
2022-10-23T02:23:34.330Z,95101.97
2022-10-23T02:26:00.693Z,95108.88
2022-10-23T02:28:27.066Z,95103.28
2022-10-23T02:30:53.417Z,95107.69
2022-10-23T02:33:19.765Z,95108.63
2022-10-23T02:35:46.126Z,95104.31
2022-10-23T02:38:12.499Z,95093.00
2022-10-23T02:40:38.865Z,95090.50
2022-10-23T02:43:05.202Z,95093.28
2022-10-23T02:45:31.593Z,95085.84
2022-10-23T02:47:58.005Z,95087.75
2022-10-23T02:50:24.369Z,95088.19
2022-10-23T02:52:50.731Z,95087.19
2022-10-23T02:55:17.085Z,95086.59
2022-10-23T02:57:43.645Z,95083.66
2022-10-23T03:00:10.286Z,95079.16
2022-10-23T03:02:36.653Z,95086.75
2022-10-23T03:05:03.004Z,95086.81
2022-10-23T03:07:29.349Z,95078.47
2022-10-23T03:09:55.716Z,95075.97
2022-10-23T03:12:22.057Z,95065.63
2022-10-23T03:14:48.435Z,95062.56
2022-10-23T03:17:14.774Z,95048.97
2022-10-23T03:19:41.142Z,95046.56
2022-10-23T03:22:07.481Z,95053.22
2022-10-23T03:24:33.845Z,95051.16
2022-10-23T03:27:00.203Z,95056.81
2022-10-23T03:29:26.555Z,95045.34
2022-10-23T03:31:52.941Z,95052.41
2022-10-23T03:34:19.277Z,95060.22
2022-10-23T03:36:45.644Z,95074.69
2022-10-23T03:39:12.003Z,95077.84
2022-10-23T03:41:38.367Z,95086.19
2022-10-23T03:46:35.978Z,95084.34
2022-10-23T03:49:02.344Z,95084.34
2022-10-23T03:51:28.726Z,95077.03
2022-10-23T03:53:55.092Z,95070.78
2022-10-23T03:56:21.429Z,95066.97
2022-10-23T03:58:47.811Z,95062.88
2022-10-23T04:01:14.237Z,95058.78
2022-10-23T04:03:40.633Z,95066.91
2022-10-23T04:06:06.983Z,95069.63
2022-10-23T04:08:33.341Z,95071.69
2022-10-23T04:10:59.745Z,95074.31
2022-10-23T04:13:26.107Z,95073.22
2022-10-23T04:15:52.471Z,95074.22
2022-10-23T04:18:18.852Z,95073.47
2022-10-23T04:20:45.219Z,95065.91
2022-10-23T04:23:11.625Z,95065.63
2022-10-23T04:25:38.041Z,95068.97
2022-10-23T04:28:04.409Z,95080.44
2022-10-23T04:30:30.787Z,95087.16
2022-10-23T04:32:57.144Z,95083.53
2022-10-23T04:35:23.515Z,95077.50
2022-10-23T04:37:49.867Z,95075.88
2022-10-23T04:40:16.221Z,95072.88
2022-10-23T04:42:42.794Z,95065.56
2022-10-23T04:45:09.346Z,95070.41
2022-10-23T04:47:35.707Z,95072.38
2022-10-23T04:50:02.066Z,95069.50
2022-10-23T04:52:28.442Z,95066.84
2022-10-23T04:54:54.794Z,95066.09
2022-10-23T04:57:21.144Z,95072.94
2022-10-23T04:59:47.498Z,95074.56
2022-10-23T05:02:13.844Z,95079.56
2022-10-23T05:04:40.213Z,95072.19
2022-10-23T05:07:06.572Z,95079.75
2022-10-23T05:09:32.943Z,95074.50
2022-10-23T05:11:59.305Z,95080.91
2022-10-23T05:14:25.665Z,95077.91
2022-10-23T05:16:52.019Z,95075.94
2022-10-23T05:19:21.953Z,95061.53
2022-10-23T05:21:50.577Z,95059.88
2022-10-23T05:24:16.945Z,95067.88
2022-10-23T05:26:43.308Z,95067.88
2022-10-23T05:29:09.659Z,95069.66
2022-10-23T05:31:36.019Z,95066.31
2022-10-23T05:34:02.393Z,95067.41
2022-10-23T05:36:28.754Z,95068.97
2022-10-23T05:38:55.142Z,95066.72
2022-10-23T05:41:21.491Z,95074.03
2022-10-23T05:43:47.880Z,95062.88
2022-10-23T05:46:14.257Z,95061.78
2022-10-23T05:48:40.619Z,95059.94
2022-10-23T05:51:06.995Z,95070.25
2022-10-23T05:53:34.561Z,95062.41
2022-10-23T05:56:02.543Z,95075.44
2022-10-23T05:58:28.933Z,95067.53
2022-10-23T06:00:55.302Z,95069.69
2022-10-23T06:03:21.648Z,95065.88
2022-10-23T06:05:47.988Z,95060.81
2022-10-23T06:08:14.347Z,95050.56
2022-10-23T06:10:40.695Z,95054.97
2022-10-23T06:13:07.065Z,95057.06
2022-10-23T06:15:33.407Z,95065.88
2022-10-23T06:17:59.802Z,95075.16
2022-10-23T06:20:28.010Z,95068.94
2022-10-23T06:22:55.232Z,95064.53
2022-10-23T06:25:21.607Z,95075.13
2022-10-23T06:27:47.955Z,95072.75
2022-10-23T06:30:14.319Z,95069.28
2022-10-23T06:32:41.238Z,95070.25
2022-10-23T06:35:07.899Z,95075.78
2022-10-23T06:37:34.281Z,95070.81
2022-10-23T06:40:00.661Z,95068.41
2022-10-23T06:42:27.025Z,95078.31
2022-10-23T06:44:53.393Z,95069.50
2022-10-23T06:47:19.771Z,95065.28
2022-10-23T06:49:46.135Z,95064.41
2022-10-23T06:52:18.512Z,95060.22
2022-10-23T06:54:58.885Z,95065.91
2022-10-23T06:57:25.251Z,95065.75
2022-10-23T06:59:51.600Z,95064.09
2022-10-23T07:02:17.988Z,95067.78
2022-10-23T07:04:44.326Z,95073.72
2022-10-23T07:07:10.708Z,95069.84
2022-10-23T07:09:37.061Z,95063.03
2022-10-23T07:12:03.421Z,95067.53
2022-10-23T07:14:29.773Z,95065.47
2022-10-23T07:16:56.133Z,95073.75
2022-10-23T07:19:22.489Z,95066.81
2022-10-23T07:21:48.838Z,95062.31
2022-10-23T07:24:15.192Z,95056.84
2022-10-23T07:26:41.607Z,95064.34
2022-10-23T07:29:08.056Z,95054.50
2022-10-23T07:31:34.410Z,95052.81
2022-10-23T07:34:00.779Z,95070.16
2022-10-23T07:36:27.138Z,95053.00
2022-10-23T07:38:53.506Z,95047.97
2022-10-23T07:41:19.864Z,95047.31
2022-10-23T07:43:46.211Z,95040.09
2022-10-23T07:46:12.561Z,95052.16
2022-10-23T07:48:38.953Z,95049.41
2022-10-23T07:51:05.293Z,95040.56
2022-10-23T07:53:31.657Z,95041.66
2022-10-23T07:55:58.034Z,95043.00
2022-10-23T07:58:24.412Z,95046.16
2022-10-23T08:00:50.775Z,95042.09
2022-10-23T08:03:17.119Z,95047.06
2022-10-23T08:05:43.489Z,95044.50
2022-10-23T08:08:09.923Z,95049.22
2022-10-23T08:10:36.262Z,95054.44
2022-10-23T08:13:02.652Z,95054.63
2022-10-23T08:15:29.015Z,95047.91
2022-10-23T08:17:55.373Z,95037.66
2022-10-23T08:20:21.740Z,95050.16
2022-10-23T08:22:48.083Z,95053.22
2022-10-23T08:25:14.491Z,95047.78
2022-10-23T08:27:41.141Z,95042.91
2022-10-23T08:30:07.771Z,95036.75
2022-10-23T08:32:34.124Z,95044.69
2022-10-23T08:35:00.482Z,95045.84
2022-10-23T08:37:26.831Z,95052.69
2022-10-23T08:39:53.428Z,95048.88
2022-10-23T08:42:19.903Z,95045.50
2022-10-23T08:44:46.283Z,95037.41
2022-10-23T08:47:12.638Z,95039.50
2022-10-23T08:49:39.000Z,95034.53
2022-10-23T08:52:06.507Z,95033.28
2022-10-23T08:54:34.487Z,95037.06
2022-10-23T08:57:00.835Z,95041.69
2022-10-23T08:59:27.194Z,95034.09
2022-10-23T09:01:53.648Z,95034.31
2022-10-23T09:04:20.048Z,95021.63
2022-10-23T09:06:46.391Z,95020.25
2022-10-23T09:09:12.743Z,95026.25
2022-10-23T09:11:39.099Z,95026.28
2022-10-23T09:14:05.467Z,95021.31
2022-10-23T09:16:31.822Z,95008.22
2022-10-23T09:18:58.184Z,95010.53
2022-10-23T09:21:24.569Z,95009.22
2022-10-23T09:23:50.917Z,95016.03
2022-10-23T09:26:17.278Z,95013.09
2022-10-23T09:28:43.664Z,95008.69
2022-10-23T09:31:10.024Z,95010.41
2022-10-23T09:33:36.372Z,95021.00
2022-10-23T09:36:02.728Z,95007.22
2022-10-23T09:38:29.098Z,95009.00
2022-10-23T09:40:55.450Z,95015.97
2022-10-23T09:43:21.826Z,95014.25
2022-10-23T09:45:48.201Z,95014.06
2022-10-23T09:48:15.137Z,95014.50
2022-10-23T09:50:41.517Z,95028.19
2022-10-23T09:53:07.859Z,95021.00
2022-10-23T09:55:34.229Z,95024.72
2022-10-23T09:58:00.601Z,95020.25
2022-10-23T10:00:26.969Z,95030.19
2022-10-23T10:02:53.363Z,95030.72
2022-10-23T10:05:19.806Z,95029.81
2022-10-23T10:07:46.214Z,95026.84
2022-10-23T10:10:12.575Z,95024.13
2022-10-23T10:12:38.918Z,95037.34
2022-10-23T10:15:05.267Z,95044.75
2022-10-23T10:17:31.620Z,95052.88
2022-10-23T10:19:57.968Z,95072.19
2022-10-23T10:22:24.343Z,95056.72
2022-10-23T10:24:50.689Z,95067.69
2022-10-23T10:27:17.082Z,95065.47
2022-10-23T10:29:43.445Z,95061.97
2022-10-23T10:32:09.802Z,95064.75
2022-10-23T10:34:36.197Z,95059.34
2022-10-23T10:37:02.561Z,95047.22
2022-10-23T10:39:28.947Z,95040.41
2022-10-23T10:41:55.343Z,95015.75
2022-10-23T10:44:21.692Z,95021.91
2022-10-23T10:46:48.035Z,95030.47
2022-10-23T10:49:14.398Z,95023.38
2022-10-23T10:51:40.781Z,95021.75
2022-10-23T10:54:07.142Z,95017.81
2022-10-23T10:56:33.490Z,95039.53
2022-10-23T10:58:59.833Z,95056.56
2022-10-23T11:01:26.317Z,95058.13
2022-10-23T11:03:52.747Z,95043.31
2022-10-23T11:06:19.099Z,95017.41
2022-10-23T11:08:57.207Z,94966.59
2022-10-23T11:11:30.305Z,94969.16
2022-10-23T11:13:56.650Z,94995.22
2022-10-23T11:16:23.009Z,94991.84
2022-10-23T11:18:49.364Z,94990.06
2022-10-23T11:21:15.781Z,94999.81
2022-10-23T11:23:42.150Z,94979.16
2022-10-23T11:26:08.534Z,94982.66
2022-10-23T11:28:34.898Z,94986.78
2022-10-23T11:31:01.277Z,94974.19
2022-10-23T11:33:27.653Z,94976.97
2022-10-23T11:35:54.024Z,94994.44
2022-10-23T11:38:20.443Z,94978.63
2022-10-23T11:40:46.852Z,94972.53
2022-10-23T11:43:13.248Z,94955.19
2022-10-23T11:45:39.587Z,94937.22
2022-10-23T11:48:05.943Z,94949.91
2022-10-23T11:50:32.323Z,94958.19
2022-10-23T11:53:15.602Z,94949.53
2022-10-23T11:55:42.554Z,94946.88
2022-10-23T11:58:08.913Z,94944.47
2022-10-23T12:00:35.270Z,94941.78
2022-10-23T12:03:01.702Z,94950.50
2022-10-23T12:05:28.138Z,94949.28
2022-10-23T12:07:54.506Z,94939.59
2022-10-23T12:10:20.864Z,94939.31
2022-10-23T12:12:47.298Z,94935.81
2022-10-23T12:15:13.678Z,94932.16
2022-10-23T12:17:40.181Z,94919.88
2022-10-23T12:20:06.631Z,94915.72
2022-10-23T12:22:32.974Z,94911.34
2022-10-23T12:24:59.339Z,94920.41
2022-10-23T12:27:25.733Z,94926.28
2022-10-23T12:29:52.073Z,94924.81
2022-10-23T12:32:18.456Z,94909.44
2022-10-23T12:34:44.792Z,94909.19
2022-10-23T12:37:11.157Z,94898.94
2022-10-23T12:39:37.524Z,94888.53
2022-10-23T12:42:03.902Z,94882.81
2022-10-23T12:44:30.278Z,94885.75
2022-10-23T12:46:56.640Z,94871.97
2022-10-23T12:49:22.997Z,94884.69
2022-10-23T12:51:49.358Z,94890.34
2022-10-23T12:54:15.746Z,94873.47
2022-10-23T12:56:42.093Z,94881.75
2022-10-23T12:59:08.459Z,94890.88
2022-10-23T13:01:34.944Z,94881.50
2022-10-23T13:04:01.399Z,94866.84
2022-10-23T13:06:27.750Z,94874.25
2022-10-23T13:08:54.108Z,94882.31
2022-10-23T13:11:20.469Z,94890.69
2022-10-23T13:13:46.824Z,94886.41
2022-10-23T13:16:13.160Z,94878.53
2022-10-23T13:18:39.526Z,94871.25
2022-10-23T13:21:05.882Z,94862.25
2022-10-23T13:23:32.251Z,94863.56
2022-10-23T13:25:58.602Z,94868.69
2022-10-23T13:28:25.013Z,94870.50
2022-10-23T13:30:51.361Z,94879.06
2022-10-23T13:33:17.721Z,94883.66
2022-10-23T13:35:44.085Z,94867.22
2022-10-23T13:38:10.445Z,94867.00
2022-10-23T13:40:36.817Z,94855.91
2022-10-23T13:43:03.175Z,94861.88
2022-10-23T13:45:29.531Z,94860.31
2022-10-23T13:47:55.864Z,94867.03
2022-10-23T13:50:22.248Z,94854.66
2022-10-23T13:52:48.610Z,94868.53
2022-10-23T13:55:14.960Z,94854.19
2022-10-23T13:57:41.560Z,94866.63
2022-10-23T14:00:08.088Z,94847.38
2022-10-23T14:02:34.488Z,94822.78
2022-10-23T14:05:00.899Z,94819.31
2022-10-23T14:07:27.245Z,94814.25
2022-10-23T14:09:53.593Z,94825.44
2022-10-23T14:12:19.969Z,94834.66
2022-10-23T14:14:46.328Z,94838.81
2022-10-23T14:17:12.687Z,94839.09
2022-10-23T14:19:39.043Z,94826.72
2022-10-23T14:22:05.402Z,94842.88
2022-10-23T14:24:31.757Z,94821.50
2022-10-23T14:26:58.094Z,94809.94
2022-10-23T14:29:24.686Z,94820.00
2022-10-23T14:31:51.079Z,94814.22
2022-10-23T14:34:17.491Z,94820.66
2022-10-23T14:36:50.184Z,94807.41
2022-10-23T14:39:22.949Z,94823.63
2022-10-23T14:41:49.309Z,94833.47
2022-10-23T14:44:15.664Z,94803.09
2022-10-23T14:46:42.029Z,94808.16
2022-10-23T14:49:08.372Z,94803.22
2022-10-23T14:51:34.745Z,94803.63
2022-10-23T14:54:01.102Z,94801.91
2022-10-23T14:56:27.520Z,94812.91
2022-10-23T14:58:53.863Z,94808.00
2022-10-23T15:01:20.349Z,94816.56
2022-10-23T15:03:46.813Z,94794.97
2022-10-23T15:06:17.525Z,94801.28
2022-10-23T15:08:44.775Z,94812.94
2022-10-23T15:11:12.640Z,94800.63
2022-10-23T15:13:39.278Z,94808.88
2022-10-23T15:16:05.631Z,94791.44
2022-10-23T15:18:32.026Z,94787.72
2022-10-23T15:20:58.411Z,94770.50
2022-10-23T15:23:24.784Z,94782.69
2022-10-23T15:25:51.159Z,94781.75
2022-10-23T15:28:17.513Z,94791.16
2022-10-23T15:30:43.891Z,94783.97
2022-10-23T15:33:10.253Z,94792.50
2022-10-23T15:35:36.608Z,94792.28
2022-10-23T15:38:02.971Z,94803.63
2022-10-23T15:40:29.334Z,94803.75
2022-10-23T15:42:55.695Z,94811.97
2022-10-23T15:45:22.059Z,94835.16
2022-10-23T15:47:48.402Z,94813.06
2022-10-23T15:50:14.764Z,94830.38
2022-10-23T15:52:41.232Z,94822.56
2022-10-23T15:55:07.837Z,94806.13
2022-10-23T15:57:34.190Z,94800.41
2022-10-23T16:00:00.674Z,94798.34
2022-10-23T16:02:27.173Z,94800.44
2022-10-23T16:04:53.676Z,94800.69
2022-10-23T16:07:20.107Z,94818.63
2022-10-23T16:09:46.446Z,94820.63
2022-10-23T16:12:12.830Z,94823.97
2022-10-23T16:14:39.184Z,94836.53
2022-10-23T16:17:05.583Z,94839.41
2022-10-23T16:19:31.978Z,94834.50
2022-10-23T16:21:58.354Z,94837.03
2022-10-23T16:24:24.725Z,94849.47
2022-10-23T16:26:51.064Z,94847.88
2022-10-23T16:29:17.419Z,94844.44
2022-10-23T16:31:43.781Z,94834.38
2022-10-23T16:34:10.131Z,94840.28
2022-10-23T16:36:36.482Z,94841.56
2022-10-23T16:39:02.820Z,94853.03
2022-10-23T16:41:29.183Z,94868.84
2022-10-23T16:43:55.545Z,94867.91
2022-10-23T16:46:21.925Z,94863.75
2022-10-23T16:48:48.291Z,94869.19
2022-10-23T16:51:14.654Z,94858.72
2022-10-23T16:53:40.990Z,94877.34
2022-10-23T16:56:07.333Z,94874.84
2022-10-23T16:58:33.708Z,94882.34
2022-10-23T17:01:00.206Z,94879.47
2022-10-23T17:03:26.668Z,94889.16
2022-10-23T17:05:53.026Z,94891.31
2022-10-23T17:08:19.394Z,94883.72
2022-10-23T17:10:45.759Z,94897.00
2022-10-23T17:13:12.099Z,94914.84
2022-10-23T17:18:09.725Z,94935.19
2022-10-23T17:20:36.094Z,94954.47
2022-10-23T17:23:02.439Z,94977.63
2022-10-23T17:25:28.816Z,95006.06
2022-10-23T17:27:55.186Z,95016.41
2022-10-23T17:30:21.540Z,95032.44
2022-10-23T17:32:47.997Z,95031.69
2022-10-23T17:35:14.383Z,95037.69
2022-10-23T17:37:40.743Z,95061.78
2022-10-23T17:40:07.110Z,95073.53
2022-10-23T17:42:33.469Z,95072.22
2022-10-23T17:44:59.829Z,95083.66
2022-10-23T17:47:26.221Z,95105.81
2022-10-23T17:49:52.572Z,95115.50
2022-10-23T17:52:18.937Z,95124.84
2022-10-23T17:54:45.278Z,95127.88
2022-10-23T17:57:11.700Z,95136.47
2022-10-23T17:59:38.125Z,95138.16
2022-10-23T18:02:04.550Z,95133.88
2022-10-23T18:04:30.995Z,95141.31
2022-10-23T18:06:57.353Z,95125.97
2022-10-23T18:09:23.712Z,95142.47
2022-10-23T18:11:50.076Z,95144.06
2022-10-23T18:14:16.475Z,95143.97
2022-10-23T18:16:42.832Z,95134.25
2022-10-23T18:19:09.175Z,95115.22
2022-10-23T18:21:35.530Z,95109.22
2022-10-23T18:24:01.879Z,95121.91
2022-10-23T18:26:28.235Z,95140.63
2022-10-23T18:28:54.597Z,95143.31
2022-10-23T18:31:20.957Z,95148.06
2022-10-23T18:33:47.327Z,95136.81
2022-10-23T18:36:13.685Z,95122.59
2022-10-23T18:38:40.036Z,95123.44
2022-10-23T18:41:06.450Z,95097.97
2022-10-23T18:43:43.091Z,95131.44
2022-10-23T18:46:10.317Z,95115.41
2022-10-23T18:48:36.729Z,95156.78
2022-10-23T18:51:03.099Z,95123.34
2022-10-23T18:53:29.486Z,95142.47
2022-10-23T18:55:55.860Z,95186.06
2022-10-23T18:58:22.249Z,95157.75
2022-10-23T19:00:48.612Z,95184.56
2022-10-23T19:03:15.048Z,95168.78
2022-10-23T19:05:41.415Z,95149.34
2022-10-23T19:08:07.809Z,95157.84
2022-10-23T19:10:34.213Z,95093.25
2022-10-23T19:13:00.593Z,95069.50
2022-10-23T19:15:26.951Z,95055.97
2022-10-23T19:17:53.303Z,95061.75
2022-10-23T19:20:19.730Z,95049.63
2022-10-23T19:22:46.383Z,95021.69
2022-10-23T19:25:13.183Z,95040.69
2022-10-23T19:27:39.559Z,94996.13
2022-10-23T19:30:06.020Z,95029.91
2022-10-23T19:32:32.393Z,95029.34
2022-10-23T19:34:58.796Z,95044.63
2022-10-23T19:37:25.227Z,95039.75
2022-10-23T19:39:51.588Z,95039.47
2022-10-23T19:42:20.098Z,95038.28
2022-10-23T19:44:46.468Z,95007.22
2022-10-23T19:47:12.830Z,95001.53
2022-10-23T19:49:39.186Z,94994.50
2022-10-23T19:52:05.541Z,94976.47
2022-10-23T19:54:31.920Z,94962.41
2022-10-23T19:56:58.312Z,94982.28
2022-10-23T19:59:24.659Z,94981.25
2022-10-23T20:01:51.165Z,94992.59
2022-10-23T20:04:17.582Z,94987.81
2022-10-23T20:06:43.942Z,94989.66
2022-10-23T20:09:10.302Z,94987.72
2022-10-23T20:11:36.665Z,94963.53
2022-10-23T20:14:03.042Z,94969.53
2022-10-23T20:16:29.407Z,94978.53
2022-10-23T20:18:55.759Z,94976.59
2022-10-23T20:21:22.137Z,94987.72
2022-10-23T20:23:48.505Z,94999.59
2022-10-23T20:26:14.870Z,95003.34
2022-10-23T20:28:41.226Z,95030.09
2022-10-23T20:31:07.584Z,95054.91
2022-10-23T20:33:33.947Z,95055.03
2022-10-23T20:36:00.288Z,95028.06
2022-10-23T20:38:26.690Z,94995.88
2022-10-23T20:40:53.063Z,94974.34
2022-10-23T20:43:19.429Z,94970.28
2022-10-23T20:45:45.792Z,94979.28
2022-10-23T20:48:12.141Z,94996.06
2022-10-23T20:50:38.516Z,95006.25
2022-10-23T20:53:04.876Z,95023.69
2022-10-23T20:55:31.250Z,95031.50
2022-10-23T20:57:57.610Z,95040.38
2022-10-23T21:00:23.969Z,95035.47
2022-10-23T21:02:52.676Z,95056.94
2022-10-23T21:05:19.276Z,95045.69
2022-10-23T21:07:45.650Z,95051.94
2022-10-23T21:10:12.010Z,95027.44
2022-10-23T21:12:38.377Z,95015.13
2022-10-23T21:15:04.723Z,95018.75
2022-10-23T21:19:58.344Z,95051.84
2022-10-23T21:22:24.712Z,95039.84
2022-10-23T21:24:51.081Z,95041.88
2022-10-23T21:27:17.425Z,95032.78
2022-10-23T21:29:43.774Z,95017.59
2022-10-23T21:32:10.119Z,95015.66
2022-10-23T21:34:36.478Z,95013.84
2022-10-23T21:37:18.120Z,95003.88
2022-10-23T21:39:44.520Z,95006.03
2022-10-23T21:42:10.874Z,95006.34
2022-10-23T21:44:37.243Z,95019.06
2022-10-23T21:47:03.634Z,95014.38
2022-10-23T21:49:29.979Z,94992.66
2022-10-23T21:51:56.333Z,95009.34
2022-10-23T21:54:22.687Z,95022.19
2022-10-23T21:56:49.062Z,95019.31
2022-10-23T21:59:15.411Z,95036.97
2022-10-23T22:01:41.854Z,95038.81
2022-10-23T22:04:08.288Z,95033.44
2022-10-23T22:06:34.642Z,95030.34
2022-10-23T22:09:00.997Z,95027.47
2022-10-23T22:11:27.358Z,95029.47
2022-10-23T22:13:53.712Z,95019.97
2022-10-23T22:16:20.074Z,95012.06
2022-10-23T22:18:46.864Z,95008.38
2022-10-23T22:21:13.228Z,94995.31
2022-10-23T22:23:39.576Z,94987.94
2022-10-23T22:26:05.981Z,94997.44
2022-10-23T22:28:32.345Z,95031.47
2022-10-23T22:30:58.708Z,95054.25
2022-10-23T22:33:25.167Z,95084.00
2022-10-23T22:35:51.527Z,95082.50
2022-10-23T22:38:17.880Z,95094.25
2022-10-23T22:40:46.642Z,95145.00
2022-10-23T22:43:13.210Z,95106.00
2022-10-23T22:45:39.577Z,95137.56
